sensor_id;sensor_type;location;lat;lon;timestamp;pressure;altitude;pressure_sealevel;temperature;humidity
72612;BME280;60655;52.182;4.474;2023-05-21T00:00:58;101937.94;;;14.29;77.90
72612;BME280;60655;52.182;4.474;2023-05-21T00:02:59;101948.44;;;14.30;78.30
72612;BME280;60655;52.182;4.474;2023-05-21T00:05:00;101938.59;;;14.24;78.62
72612;BME280;60655;52.182;4.474;2023-05-21T00:07:01;101944.13;;;14.29;77.94
72612;BME280;60655;52.182;4.474;2023-05-21T00:09:03;101924.63;;;14.22;78.19
72612;BME280;60655;52.182;4.474;2023-05-21T00:11:05;101923.81;;;14.15;78.20
72612;BME280;60655;52.182;4.474;2023-05-21T00:13:06;101939.44;;;14.18;78.22
72612;BME280;60655;52.182;4.474;2023-05-21T00:15:08;101932.81;;;14.27;78.22
72612;BME280;60655;52.182;4.474;2023-05-21T00:17:10;101934.75;;;14.13;78.64
72612;BME280;60655;52.182;4.474;2023-05-21T00:19:11;101940.13;;;14.07;78.98
72612;BME280;60655;52.182;4.474;2023-05-21T00:21:12;101930.84;;;14.09;78.79
72612;BME280;60655;52.182;4.474;2023-05-21T00:23:13;101940.94;;;14.07;79.12
72612;BME280;60655;52.182;4.474;2023-05-21T00:25:18;101940.75;;;14.02;79.24
72612;BME280;60655;52.182;4.474;2023-05-21T00:27:19;101935.00;;;13.99;78.76
72612;BME280;60655;52.182;4.474;2023-05-21T00:29:20;101927.59;;;14.01;79.06
72612;BME280;60655;52.182;4.474;2023-05-21T00:31:21;101926.59;;;13.89;79.30
72612;BME280;60655;52.182;4.474;2023-05-21T00:33:22;101929.25;;;13.95;79.68
72612;BME280;60655;52.182;4.474;2023-05-21T00:35:26;101922.34;;;13.81;79.95
72612;BME280;60655;52.182;4.474;2023-05-21T00:37:27;101922.50;;;13.93;79.84
72612;BME280;60655;52.182;4.474;2023-05-21T00:39:32;101918.84;;;13.80;80.37
72612;BME280;60655;52.182;4.474;2023-05-21T00:41:33;101919.66;;;13.81;80.41
72612;BME280;60655;52.182;4.474;2023-05-21T00:43:35;101910.03;;;13.80;80.38
72612;BME280;60655;52.182;4.474;2023-05-21T00:45:40;101909.00;;;13.81;80.04
72612;BME280;60655;52.182;4.474;2023-05-21T00:47:46;101908.78;;;13.76;80.18
72612;BME280;60655;52.182;4.474;2023-05-21T00:49:49;101917.84;;;13.75;80.51
72612;BME280;60655;52.182;4.474;2023-05-21T00:51:52;101911.06;;;13.72;80.45
72612;BME280;60655;52.182;4.474;2023-05-21T00:53:55;101917.84;;;13.75;80.40
72612;BME280;60655;52.182;4.474;2023-05-21T00:55:56;101908.59;;;13.71;80.81
72612;BME280;60655;52.182;4.474;2023-05-21T00:57:57;101902.22;;;13.72;80.50
72612;BME280;60655;52.182;4.474;2023-05-21T00:59:58;101900.38;;;13.79;80.83
72612;BME280;60655;52.182;4.474;2023-05-21T01:01:59;101910.03;;;13.67;81.26
72612;BME280;60655;52.182;4.474;2023-05-21T01:04:04;101910.44;;;13.70;80.66
72612;BME280;60655;52.182;4.474;2023-05-21T01:06:06;101902.22;;;13.72;80.60
72612;BME280;60655;52.182;4.474;2023-05-21T01:08:07;101903.88;;;13.66;81.02
72612;BME280;60655;52.182;4.474;2023-05-21T01:10:10;101903.69;;;13.68;80.89
72612;BME280;60655;52.182;4.474;2023-05-21T01:12:12;101899.56;;;13.72;80.95
72612;BME280;60655;52.182;4.474;2023-05-21T01:14:15;101909.66;;;13.63;81.76
72612;BME280;60655;52.182;4.474;2023-05-21T01:16:16;101909.19;;;13.79;81.17
72612;BME280;60655;52.182;4.474;2023-05-21T01:18:17;101898.31;;;13.74;80.72
72612;BME280;60655;52.182;4.474;2023-05-21T01:20:20;101899.97;;;13.69;81.14
72612;BME280;60655;52.182;4.474;2023-05-21T01:22:23;101896.28;;;13.63;81.76
72612;BME280;60655;52.182;4.474;2023-05-21T01:24:24;101906.75;;;13.65;81.58
72612;BME280;60655;52.182;4.474;2023-05-21T01:26:25;101893.44;;;13.58;82.19
72612;BME280;60655;52.182;4.474;2023-05-21T01:28:28;101900.78;;;13.69;81.94
72612;BME280;60655;52.182;4.474;2023-05-21T01:30:29;101898.75;;;13.71;82.01
72612;BME280;60655;52.182;4.474;2023-05-21T01:32:35;101890.91;;;13.83;81.69
72612;BME280;60655;52.182;4.474;2023-05-21T01:34:43;101893.19;;;13.73;82.04
72612;BME280;60655;52.182;4.474;2023-05-21T01:37:07;101897.69;;;13.79;82.00
72612;BME280;60655;52.182;4.474;2023-05-21T01:39:22;101886.41;;;13.77;81.81
72612;BME280;60655;52.182;4.474;2023-05-21T01:41:27;101897.09;;;13.77;82.15
72612;BME280;60655;52.182;4.474;2023-05-21T01:43:33;101889.88;;;13.84;81.46
72612;BME280;60655;52.182;4.474;2023-05-21T01:45:39;101897.09;;;13.70;81.96
72612;BME280;60655;52.182;4.474;2023-05-21T01:47:44;101901.81;;;13.75;82.19
72612;BME280;60655;52.182;4.474;2023-05-21T01:49:47;101897.47;;;13.80;81.92
72612;BME280;60655;52.182;4.474;2023-05-21T01:51:48;101894.22;;;13.72;82.27
72612;BME280;60655;52.182;4.474;2023-05-21T01:53:49;101897.09;;;13.77;82.35
72612;BME280;60655;52.182;4.474;2023-05-21T01:55:50;101889.91;;;13.71;82.59
72612;BME280;60655;52.182;4.474;2023-05-21T01:57:54;101885.81;;;13.68;82.99
72612;BME280;60655;52.182;4.474;2023-05-21T01:59:58;101893.38;;;13.78;82.51
72612;BME280;60655;52.182;4.474;2023-05-21T02:01:59;101896.88;;;13.78;82.75
72612;BME280;60655;52.182;4.474;2023-05-21T02:04:00;101892.34;;;13.79;83.08
72612;BME280;60655;52.182;4.474;2023-05-21T02:06:01;101877.16;;;13.79;82.74
72612;BME280;60655;52.182;4.474;2023-05-21T02:08:02;101891.03;;;13.95;82.71
72612;BME280;60655;52.182;4.474;2023-05-21T02:10:03;101893.13;;;13.86;82.83
72612;BME280;60655;52.182;4.474;2023-05-21T02:12:05;101892.66;;;14.02;82.38
72612;BME280;60655;52.182;4.474;2023-05-21T02:14:06;101886.25;;;14.10;82.31
72612;BME280;60655;52.182;4.474;2023-05-21T02:16:11;101889.53;;;14.12;82.31
72612;BME280;60655;52.182;4.474;2023-05-21T02:18:14;101894.94;;;13.99;83.17
72612;BME280;60655;52.182;4.474;2023-05-21T02:20:16;101893.06;;;14.06;82.87
72612;BME280;60655;52.182;4.474;2023-05-21T02:22:17;101892.63;;;14.09;83.09
72612;BME280;60655;52.182;4.474;2023-05-21T02:24:21;101892.66;;;14.02;83.48
72612;BME280;60655;52.182;4.474;2023-05-21T02:26:24;101894.66;;;14.13;83.41
72612;BME280;60655;52.182;4.474;2023-05-21T02:28:25;101894.91;;;14.05;83.41
72612;BME280;60655;52.182;4.474;2023-05-21T02:30:25;101887.63;;;14.19;83.10
72612;BME280;60655;52.182;4.474;2023-05-21T02:32:26;101885.78;;;14.19;83.02
72612;BME280;60655;52.182;4.474;2023-05-21T02:34:27;101895.84;;;14.17;83.34
72612;BME280;60655;52.182;4.474;2023-05-21T02:36:31;101893.56;;;14.21;83.31
72612;BME280;60655;52.182;4.474;2023-05-21T02:38:32;101891.88;;;14.33;82.73
72612;BME280;60655;52.182;4.474;2023-05-21T02:40:33;101896.25;;;14.21;83.15
72612;BME280;60655;52.182;4.474;2023-05-21T02:42:35;101886.81;;;14.18;83.52
72612;BME280;60655;52.182;4.474;2023-05-21T02:44:39;101898.09;;;14.20;83.69
72612;BME280;60655;52.182;4.474;2023-05-21T02:46:40;101883.84;;;14.33;83.07
72612;BME280;60655;52.182;4.474;2023-05-21T02:48:41;101894.16;;;14.30;83.25
72612;BME280;60655;52.182;4.474;2023-05-21T02:50:42;101887.78;;;14.31;83.17
72612;BME280;60655;52.182;4.474;2023-05-21T02:52:43;101889.84;;;14.29;82.81
72612;BME280;60655;52.182;4.474;2023-05-21T02:54:44;101878.50;;;14.33;82.85
72612;BME280;60655;52.182;4.474;2023-05-21T02:56:45;101883.50;;;14.23;83.16
72612;BME280;60655;52.182;4.474;2023-05-21T02:58:46;101878.50;;;14.33;82.88
72612;BME280;60655;52.182;4.474;2023-05-21T03:00:47;101877.66;;;14.39;82.80
72612;BME280;60655;52.182;4.474;2023-05-21T03:02:48;101882.66;;;14.29;82.75
72612;BME280;60655;52.182;4.474;2023-05-21T03:04:49;101887.72;;;14.44;82.84
72612;BME280;60655;52.182;4.474;2023-05-21T03:06:51;101882.19;;;14.39;83.03
72612;BME280;60655;52.182;4.474;2023-05-21T03:08:54;101877.03;;;14.37;83.14
72612;BME280;60655;52.182;4.474;2023-05-21T03:10:55;101873.97;;;14.34;83.30
72612;BME280;60655;52.182;4.474;2023-05-21T03:12:56;101875.44;;;14.30;83.50
72612;BME280;60655;52.182;4.474;2023-05-21T03:14:57;101878.50;;;14.33;83.41
72612;BME280;60655;52.182;4.474;2023-05-21T03:16:59;101872.34;;;14.33;83.62
72612;BME280;60655;52.182;4.474;2023-05-21T03:19:00;101869.66;;;14.33;83.39
72612;BME280;60655;52.182;4.474;2023-05-21T03:21:01;101867.84;;;14.27;83.70
72612;BME280;60655;52.182;4.474;2023-05-21T03:23:02;101868.47;;;14.29;83.58
72612;BME280;60655;52.182;4.474;2023-05-21T03:25:04;101874.81;;;14.34;83.80
72612;BME280;60655;52.182;4.474;2023-05-21T03:27:05;101864.16;;;14.28;83.88
72612;BME280;60655;52.182;4.474;2023-05-21T03:29:06;101864.53;;;14.31;83.71
72612;BME280;60655;52.182;4.474;2023-05-21T03:31:07;101866.41;;;14.31;83.78
72612;BME280;60655;52.182;4.474;2023-05-21T03:33:08;101863.13;;;14.29;84.01
72612;BME280;60655;52.182;4.474;2023-05-21T03:35:10;101868.53;;;14.15;84.37
72612;BME280;60655;52.182;4.474;2023-05-21T03:37:11;101871.97;;;14.23;84.41
72612;BME280;60655;52.182;4.474;2023-05-21T03:39:12;101865.59;;;14.24;83.71
72612;BME280;60655;52.182;4.474;2023-05-21T03:41:13;101861.47;;;14.28;83.79
72612;BME280;60655;52.182;4.474;2023-05-21T03:43:14;101864.53;;;14.31;83.67
72612;BME280;60655;52.182;4.474;2023-05-21T03:45:15;101862.66;;;14.38;83.30
72612;BME280;60655;52.182;4.474;2023-05-21T03:47:16;101866.19;;;14.32;83.42
72612;BME280;60655;52.182;4.474;2023-05-21T03:49:18;101858.56;;;14.36;83.37
72612;BME280;60655;52.182;4.474;2023-05-21T03:51:19;101866.78;;;14.41;83.29
72612;BME280;60655;52.182;4.474;2023-05-21T03:53:21;101868.44;;;14.35;83.59
72612;BME280;60655;52.182;4.474;2023-05-21T03:55:22;101863.94;;;14.29;83.73
72612;BME280;60655;52.182;4.474;2023-05-21T03:57:23;101873.44;;;14.18;84.31
72612;BME280;60655;52.182;4.474;2023-05-21T03:59:23;101869.91;;;14.25;84.31
72612;BME280;60655;52.182;4.474;2023-05-21T04:01:24;101862.88;;;14.37;83.62
72612;BME280;60655;52.182;4.474;2023-05-21T04:03:27;101863.28;;;14.34;83.93
72612;BME280;60655;52.182;4.474;2023-05-21T04:05:28;101861.81;;;14.38;83.91
72612;BME280;60655;52.182;4.474;2023-05-21T04:07:29;101861.78;;;14.44;83.47
72612;BME280;60655;52.182;4.474;2023-05-21T04:09:31;101875.16;;;14.44;83.28
72612;BME280;60655;52.182;4.474;2023-05-21T04:11:32;101867.63;;;14.28;84.23
72612;BME280;60655;52.182;4.474;2023-05-21T04:13:33;101873.38;;;14.32;84.05
72612;BME280;60655;52.182;4.474;2023-05-21T04:15:34;101872.94;;;14.41;83.66
72612;BME280;60655;52.182;4.474;2023-05-21T04:17:35;101870.06;;;14.43;83.38
72612;BME280;60655;52.182;4.474;2023-05-21T04:19:36;101876.84;;;14.39;83.25
72612;BME280;60655;52.182;4.474;2023-05-21T04:21:36;101870.06;;;14.43;83.27
72612;BME280;60655;52.182;4.474;2023-05-21T04:23:38;101874.59;;;14.42;83.59
72612;BME280;60655;52.182;4.474;2023-05-21T04:25:39;101885.03;;;14.44;83.10
72612;BME280;60655;52.182;4.474;2023-05-21T04:27:40;101872.88;;;14.48;83.28
72612;BME280;60655;52.182;4.474;2023-05-21T04:29:42;101868.34;;;14.48;83.08
72612;BME280;60655;52.182;4.474;2023-05-21T04:31:43;101867.53;;;14.48;83.02
72612;BME280;60655;52.182;4.474;2023-05-21T04:33:44;101868.75;;;14.52;82.91
72612;BME280;60655;52.182;4.474;2023-05-21T04:35:45;101875.19;;;14.38;83.15
72612;BME280;60655;52.182;4.474;2023-05-21T04:37:49;101874.81;;;14.34;83.94
72612;BME280;60655;52.182;4.474;2023-05-21T04:39:52;101872.88;;;14.48;83.09
72612;BME280;60655;52.182;4.474;2023-05-21T04:41:54;101875.34;;;14.49;83.06
72612;BME280;60655;52.182;4.474;2023-05-21T04:43:56;101873.91;;;14.47;83.31
72612;BME280;60655;52.182;4.474;2023-05-21T04:45:57;101873.56;;;14.37;83.56
72612;BME280;60655;52.182;4.474;2023-05-21T04:47:58;101875.97;;;14.45;83.36
72612;BME280;60655;52.182;4.474;2023-05-21T04:50:03;101873.31;;;14.45;83.13
72612;BME280;60655;52.182;4.474;2023-05-21T04:52:04;101872.84;;;14.55;82.82
72612;BME280;60655;52.182;4.474;2023-05-21T04:54:05;101881.25;;;14.58;82.77
72612;BME280;60655;52.182;4.474;2023-05-21T04:56:06;101879.25;;;14.47;83.07
72612;BME280;60655;52.182;4.474;2023-05-21T04:58:09;101880.47;;;14.51;82.88
72612;BME280;60655;52.182;4.474;2023-05-21T05:00:13;101877.78;;;14.51;82.49
72612;BME280;60655;52.182;4.474;2023-05-21T05:02:14;101878.78;;;14.57;82.53
72612;BME280;60655;52.182;4.474;2023-05-21T05:04:15;101876.13;;;14.57;82.62
72612;BME280;60655;52.182;4.474;2023-05-21T05:06:16;101869.72;;;14.58;82.70
72612;BME280;60655;52.182;4.474;2023-05-21T05:08:17;101867.38;;;14.43;83.04
72612;BME280;60655;52.182;4.474;2023-05-21T05:10:18;101870.97;;;14.55;82.97
72612;BME280;60655;52.182;4.474;2023-05-21T05:12:19;101862.56;;;14.51;82.99
72612;BME280;60655;52.182;4.474;2023-05-21T05:14:20;101866.72;;;14.47;82.98
72612;BME280;60655;52.182;4.474;2023-05-21T05:16:21;101865.31;;;14.38;83.43
72612;BME280;60655;52.182;4.474;2023-05-21T05:18:25;101856.56;;;14.56;82.72
72612;BME280;60655;52.182;4.474;2023-05-21T05:20:26;101858.22;;;14.57;82.46
72612;BME280;60655;52.182;4.474;2023-05-21T05:22:27;101854.91;;;14.62;82.11
72612;BME280;60655;52.182;4.474;2023-05-21T05:24:27;101854.06;;;14.61;82.35
72612;BME280;60655;52.182;4.474;2023-05-21T05:26:28;101858.38;;;14.62;82.32
72612;BME280;60655;52.182;4.474;2023-05-21T05:28:29;101854.84;;;14.68;82.31
72612;BME280;60655;52.182;4.474;2023-05-21T05:30:31;101851.00;;;14.82;81.85
72612;BME280;60655;52.182;4.474;2023-05-21T05:32:32;101846.97;;;14.73;81.30
72612;BME280;60655;52.182;4.474;2023-05-21T05:34:33;101848.59;;;14.74;82.10
72612;BME280;60655;52.182;4.474;2023-05-21T05:36:34;101849.81;;;14.78;82.05
72612;BME280;60655;52.182;4.474;2023-05-21T05:38:35;101850.13;;;14.89;81.14
72612;BME280;60655;52.182;4.474;2023-05-21T05:40:36;101837.84;;;14.81;81.75
72612;BME280;60655;52.182;4.474;2023-05-21T05:42:37;101840.69;;;14.86;81.50
72612;BME280;60655;52.182;4.474;2023-05-21T05:44:38;101840.59;;;14.99;81.33
72612;BME280;60655;52.182;4.474;2023-05-21T05:46:39;101840.50;;;15.06;80.82
72612;BME280;60655;52.182;4.474;2023-05-21T05:48:40;101843.16;;;15.06;80.86
72612;BME280;60655;52.182;4.474;2023-05-21T05:50:41;101842.50;;;15.10;80.54
72612;BME280;60655;52.182;4.474;2023-05-21T05:52:42;101844.97;;;15.12;80.30
72612;BME280;60655;52.182;4.474;2023-05-21T05:54:43;101842.28;;;15.12;80.33
72612;BME280;60655;52.182;4.474;2023-05-21T05:56:44;101839.53;;;15.00;80.98
72612;BME280;60655;52.182;4.474;2023-05-21T05:58:45;101833.06;;;15.08;80.20
72612;BME280;60655;52.182;4.474;2023-05-21T06:00:46;101846.16;;;15.16;80.45
72612;BME280;60655;52.182;4.474;2023-05-21T06:02:47;101845.00;;;15.30;80.16
72612;BME280;60655;52.182;4.474;2023-05-21T06:04:48;101833.59;;;15.35;79.52
72612;BME280;60655;52.182;4.474;2023-05-21T06:06:49;101849.81;;;15.40;79.20
72612;BME280;60655;52.182;4.474;2023-05-21T06:08:50;101848.56;;;15.42;78.95
72612;BME280;60655;52.182;4.474;2023-05-21T06:10:51;101837.47;;;15.39;79.00
72612;BME280;60655;52.182;4.474;2023-05-21T06:12:52;101830.47;;;15.38;79.02
72612;BME280;60655;52.182;4.474;2023-05-21T06:14:53;101842.81;;;15.39;79.24
72612;BME280;60655;52.182;4.474;2023-05-21T06:16:54;101843.13;;;15.49;78.79
72612;BME280;60655;52.182;4.474;2023-05-21T06:18:55;101851.38;;;15.47;78.86
72612;BME280;60655;52.182;4.474;2023-05-21T06:20:56;101850.72;;;15.52;78.30
72612;BME280;60655;52.182;4.474;2023-05-21T06:22:57;101838.75;;;15.54;78.54
72612;BME280;60655;52.182;4.474;2023-05-21T06:24:58;101848.63;;;15.54;78.49
72612;BME280;60655;52.182;4.474;2023-05-21T06:26:59;101844.84;;;15.62;78.13
72612;BME280;60655;52.182;4.474;2023-05-21T06:29:00;101849.28;;;15.56;78.28
72612;BME280;60655;52.182;4.474;2023-05-21T06:31:02;101857.91;;;15.58;78.99
72612;BME280;60655;52.182;4.474;2023-05-21T06:33:03;101857.13;;;15.69;77.83
72612;BME280;60655;52.182;4.474;2023-05-21T06:35:04;101850.50;;;15.72;77.56
72612;BME280;60655;52.182;4.474;2023-05-21T06:37:05;101855.72;;;15.67;77.62
72612;BME280;60655;52.182;4.474;2023-05-21T06:39:06;101851.69;;;15.76;77.76
72612;BME280;60655;52.182;4.474;2023-05-21T06:41:07;101844.41;;;15.83;77.19
72612;BME280;60655;52.182;4.474;2023-05-21T06:43:08;101851.41;;;15.84;76.88
72612;BME280;60655;52.182;4.474;2023-05-21T06:45:10;101844.69;;;15.75;77.58
72612;BME280;60655;52.182;4.474;2023-05-21T06:47:11;101852.75;;;15.75;77.22
72612;BME280;60655;52.182;4.474;2023-05-21T06:49:12;101852.38;;;15.71;77.93
72612;BME280;60655;52.182;4.474;2023-05-21T06:51:13;101852.66;;;15.81;77.15
72612;BME280;60655;52.182;4.474;2023-05-21T06:53:14;101851.03;;;15.80;77.20
72612;BME280;60655;52.182;4.474;2023-05-21T06:55:16;101853.78;;;15.74;77.75
72612;BME280;60655;52.182;4.474;2023-05-21T06:57:17;101846.47;;;15.81;77.08
72612;BME280;60655;52.182;4.474;2023-05-21T06:59:18;101854.69;;;15.98;77.23
72612;BME280;60655;52.182;4.474;2023-05-21T07:01:19;101854.03;;;16.02;76.24
72612;BME280;60655;52.182;4.474;2023-05-21T07:03:21;101853.78;;;16.04;76.39
72612;BME280;60655;52.182;4.474;2023-05-21T07:05:22;101859.06;;;16.10;76.66
72612;BME280;60655;52.182;4.474;2023-05-21T07:07:23;101852.81;;;16.16;76.29
72612;BME280;60655;52.182;4.474;2023-05-21T07:09:24;101859.31;;;16.09;75.63
72612;BME280;60655;52.182;4.474;2023-05-21T07:11:25;101856.84;;;16.07;75.91
72612;BME280;60655;52.182;4.474;2023-05-21T07:13:28;101862.22;;;16.19;75.50
72612;BME280;60655;52.182;4.474;2023-05-21T07:15:29;101855.00;;;16.19;74.97
72612;BME280;60655;52.182;4.474;2023-05-21T07:17:30;101863.47;;;16.35;74.93
72612;BME280;60655;52.182;4.474;2023-05-21T07:19:31;101859.97;;;16.34;75.49
72612;BME280;60655;52.182;4.474;2023-05-21T07:21:32;101862.28;;;16.31;74.98
72612;BME280;60655;52.182;4.474;2023-05-21T07:23:33;101863.69;;;16.33;75.06
72612;BME280;60655;52.182;4.474;2023-05-21T07:25:34;101861.59;;;16.47;74.18
72612;BME280;60655;52.182;4.474;2023-05-21T07:27:35;101867.47;;;16.44;74.06
72612;BME280;60655;52.182;4.474;2023-05-21T07:29:36;101867.69;;;16.42;73.78
72612;BME280;60655;52.182;4.474;2023-05-21T07:31:37;101871.88;;;16.38;74.04
72612;BME280;60655;52.182;4.474;2023-05-21T07:33:38;101870.47;;;16.47;74.04
72612;BME280;60655;52.182;4.474;2023-05-21T07:35:39;101874.78;;;16.48;73.82
72612;BME280;60655;52.182;4.474;2023-05-21T07:37:40;101881.19;;;16.36;74.32
72612;BME280;60655;52.182;4.474;2023-05-21T07:39:41;101876.28;;;16.33;73.97
72612;BME280;60655;52.182;4.474;2023-05-21T07:41:42;101874.78;;;16.37;73.95
72612;BME280;60655;52.182;4.474;2023-05-21T07:43:43;101862.41;;;16.36;74.22
72612;BME280;60655;52.182;4.474;2023-05-21T07:45:44;101855.66;;;16.33;74.11
72612;BME280;60655;52.182;4.474;2023-05-21T07:47:45;101871.78;;;16.45;73.92
72612;BME280;60655;52.182;4.474;2023-05-21T07:49:46;101860.81;;;16.58;73.81
72612;BME280;60655;52.182;4.474;2023-05-21T07:51:47;101862.16;;;16.67;73.13
72612;BME280;60655;52.182;4.474;2023-05-21T07:53:48;101860.88;;;16.70;73.43
72612;BME280;60655;52.182;4.474;2023-05-21T07:55:49;101861.25;;;16.73;72.60
72612;BME280;60655;52.182;4.474;2023-05-21T07:57:50;101861.19;;;16.62;73.91
72612;BME280;60655;52.182;4.474;2023-05-21T07:59:54;101869.53;;;16.72;73.18
72612;BME280;60655;52.182;4.474;2023-05-21T08:01:56;101870.69;;;16.64;73.85
72612;BME280;60655;52.182;4.474;2023-05-21T08:03:58;101877.56;;;16.72;72.98
72612;BME280;60655;52.182;4.474;2023-05-21T08:06:01;101861.66;;;16.59;73.77
72612;BME280;60655;52.182;4.474;2023-05-21T08:08:02;101860.56;;;16.48;74.13
72612;BME280;60655;52.182;4.474;2023-05-21T08:10:05;101874.19;;;16.65;73.72
72612;BME280;60655;52.182;4.474;2023-05-21T08:12:06;101871.03;;;16.68;72.88
72612;BME280;60655;52.182;4.474;2023-05-21T08:14:07;101867.41;;;16.85;72.74
72612;BME280;60655;52.182;4.474;2023-05-21T08:16:09;101867.06;;;16.82;73.81
72612;BME280;60655;52.182;4.474;2023-05-21T08:18:11;101862.66;;;16.99;72.92
72612;BME280;60655;52.182;4.474;2023-05-21T08:20:12;101864.53;;;16.99;72.85
72612;BME280;60655;52.182;4.474;2023-05-21T08:22:14;101862.31;;;16.96;72.44
72612;BME280;60655;52.182;4.474;2023-05-21T08:24:15;101865.44;;;17.04;71.96
72612;BME280;60655;52.182;4.474;2023-05-21T08:26:16;101868.59;;;17.13;72.53
72612;BME280;60655;52.182;4.474;2023-05-21T08:28:17;101860.78;;;17.23;71.47
72612;BME280;60655;52.182;4.474;2023-05-21T08:30:18;101862.25;;;17.42;71.41
72612;BME280;60655;52.182;4.474;2023-05-21T08:32:19;101864.25;;;17.35;71.68
72612;BME280;60655;52.182;4.474;2023-05-21T08:34:20;101862.72;;;17.39;70.98
72612;BME280;60655;52.182;4.474;2023-05-21T08:36:21;101865.06;;;17.47;69.38
72612;BME280;60655;52.182;4.474;2023-05-21T08:38:22;101873.09;;;17.71;68.94
72612;BME280;60655;52.182;4.474;2023-05-21T08:40:23;101866.22;;;17.51;68.99
72612;BME280;60655;52.182;4.474;2023-05-21T08:42:43;101872.06;;;17.48;68.98
72612;BME280;60655;52.182;4.474;2023-05-21T08:44:50;101865.72;;;17.66;68.49
72612;BME280;60655;52.182;4.474;2023-05-21T08:46:53;101857.06;;;17.76;68.23
72612;BME280;60655;52.182;4.474;2023-05-21T08:48:54;101862.22;;;17.66;68.58
72612;BME280;60655;52.182;4.474;2023-05-21T08:50:55;101853.94;;;17.67;68.28
72612;BME280;60655;52.182;4.474;2023-05-21T08:52:58;101863.47;;;17.86;67.77
72612;BME280;60655;52.182;4.474;2023-05-21T08:55:02;101869.09;;;17.85;66.93
72612;BME280;60655;52.182;4.474;2023-05-21T08:57:04;101863.38;;;17.70;67.15
72612;BME280;60655;52.182;4.474;2023-05-21T08:59:06;101874.25;;;17.75;67.74
72612;BME280;60655;52.182;4.474;2023-05-21T09:01:08;101869.66;;;17.87;67.74
72612;BME280;60655;52.182;4.474;2023-05-21T09:03:09;101863.31;;;17.93;66.84
72612;BME280;60655;52.182;4.474;2023-05-21T09:05:13;101851.09;;;17.85;67.46
72612;BME280;60655;52.182;4.474;2023-05-21T09:07:15;101863.31;;;17.93;67.21
72612;BME280;60655;52.182;4.474;2023-05-21T09:09:23;101852.66;;;17.98;67.00
72612;BME280;60655;52.182;4.474;2023-05-21T09:11:28;101842.81;;;18.04;65.77
72612;BME280;60655;52.182;4.474;2023-05-21T09:13:30;101843.88;;;18.19;65.85
72612;BME280;60655;52.182;4.474;2023-05-21T09:15:32;101834.78;;;18.54;65.09
72612;BME280;60655;52.182;4.474;2023-05-21T09:17:33;101836.53;;;18.60;64.15
72612;BME280;60655;52.182;4.474;2023-05-21T09:19:34;101815.09;;;18.65;64.63
72612;BME280;60655;52.182;4.474;2023-05-21T09:21:35;101833.84;;;18.94;63.70
72612;BME280;60655;52.182;4.474;2023-05-21T09:23:38;101841.88;;;19.10;62.70
72612;BME280;60655;52.182;4.474;2023-05-21T09:25:39;101844.00;;;19.08;62.11
72612;BME280;60655;52.182;4.474;2023-05-21T09:27:41;101838.81;;;18.85;61.79
72612;BME280;60655;52.182;4.474;2023-05-21T09:29:42;101839.13;;;18.88;61.82
72612;BME280;60655;52.182;4.474;2023-05-21T09:31:44;101835.13;;;18.91;61.46
72612;BME280;60655;52.182;4.474;2023-05-21T09:33:45;101831.16;;;18.77;61.67
72612;BME280;60655;52.182;4.474;2023-05-21T09:35:49;101833.91;;;18.99;61.56
72612;BME280;60655;52.182;4.474;2023-05-21T09:37:51;101829.53;;;19.14;61.03
72612;BME280;60655;52.182;4.474;2023-05-21T09:39:53;101829.44;;;19.26;60.58
72612;BME280;60655;52.182;4.474;2023-05-21T09:41:56;101831.97;;;19.54;61.13
72612;BME280;60655;52.182;4.474;2023-05-21T09:44:01;101817.69;;;19.54;60.22
72612;BME280;60655;52.182;4.474;2023-05-21T09:46:03;101829.66;;;19.63;60.80
72612;BME280;60655;52.182;4.474;2023-05-21T09:48:04;101836.88;;;19.58;60.67
72612;BME280;60655;52.182;4.474;2023-05-21T09:50:05;101826.44;;;19.44;60.89
72612;BME280;60655;52.182;4.474;2023-05-21T09:52:07;101820.38;;;19.54;60.55
72612;BME280;60655;52.182;4.474;2023-05-21T09:54:09;101822.94;;;19.66;60.39
72612;BME280;60655;52.182;4.474;2023-05-21T09:56:11;101812.88;;;19.56;59.94
72612;BME280;60655;52.182;4.474;2023-05-21T09:58:12;101826.31;;;19.34;61.49
72612;BME280;60655;52.182;4.474;2023-05-21T10:00:29;101821.91;;;19.28;60.59
72612;BME280;60655;52.182;4.474;2023-05-21T10:02:31;101824.72;;;19.55;60.85
72612;BME280;60655;52.182;4.474;2023-05-21T10:04:35;101828.47;;;19.54;60.83
72612;BME280;60655;52.182;4.474;2023-05-21T10:06:42;101826.41;;;19.61;60.20
72612;BME280;60655;52.182;4.474;2023-05-21T10:08:47;101815.00;;;19.37;58.71
72612;BME280;60655;52.182;4.474;2023-05-21T10:10:48;101821.09;;;19.49;57.88
72612;BME280;60655;52.182;4.474;2023-05-21T10:12:57;101818.47;;;19.33;58.56
72612;BME280;60655;52.182;4.474;2023-05-21T10:15:01;101815.72;;;19.28;59.31
72612;BME280;60655;52.182;4.474;2023-05-21T10:17:04;101817.78;;;19.64;59.20
72612;BME280;60655;52.182;4.474;2023-05-21T10:19:06;101815.97;;;19.48;58.42
72612;BME280;60655;52.182;4.474;2023-05-21T10:21:10;101805.69;;;19.45;58.56
72612;BME280;60655;52.182;4.474;2023-05-21T10:23:11;101812.69;;;19.46;59.72
72612;BME280;60655;52.182;4.474;2023-05-21T10:25:13;101810.09;;;19.29;59.48
72612;BME280;60655;52.182;4.474;2023-05-21T10:27:15;101814.25;;;19.20;58.89
72612;BME280;60655;52.182;4.474;2023-05-21T10:29:18;101810.75;;;19.41;58.96
72612;BME280;60655;52.182;4.474;2023-05-21T10:31:19;101791.47;;;19.49;59.33
72612;BME280;60655;52.182;4.474;2023-05-21T10:33:22;101789.31;;;19.73;58.74
72612;BME280;60655;52.182;4.474;2023-05-21T10:35:24;101792.22;;;19.94;58.00
72612;BME280;60655;52.182;4.474;2023-05-21T10:37:27;101787.75;;;20.04;58.27